Aérodrome :
LOGIN :

S'inscrire | Disclaimer

   EN    FR    IT 

 










Légende :    VFR   VFR Marginal   IFR   IFR Intensif   IFR Très Intensif
Visi : 
Plafond : 
>= 8 km
>= 3000ft
5 à 8 km
1000 à 3000 ft
1500m à 5 km
500 à 1000 ft
800 à 1500m
200 à 500 ft
< 800m
< 200 ft
Symboles :   Orages  Brouillard  Fortes neiges  Fortes précipitations  Vent > 20 kt
SIGMETs :   Divers  Orages  Givrage  Turbulence  Onde Orograph.  Cendres Volcan.







- Altitude de l'aérodrome : 665 ft
- Code IATA : NOC


EIKN - Connaught / Knock- Ireland West

METARs EXPIRÉS :
  • 191800Z 22011KT 180V250 9999 FEW020CB SCT210 09/05 Q1003 NOSIG
  • 191730Z 23014KT 200V260 9999 FEW018 FEW020CB BKN200 10/05 Q1003 NOSIG
  • 191700Z 23016KT 200V260 9999 FEW018 FEW020CB BKN200 09/05 Q1003 NOSIG

TAF TAF EIKN
Valide du 19 à 18h jusqu'au 20 à 18h UTC


191700Z 1918/2018 24018G30KT 9999 SCT020 BKN040
BECMG 1918/1921 23013KT
PROB40
TEMPO 1918/1921 -SHRA SCT018CB
BECMG 2004/2006 20008KT
BECMG 2010/2012 17006KT
BECMG 2012/2014 VRB03KT 5000 -RA BKN012
Pas de NOTAMs connus pour ce terrain.
4 SIGMETs publiés pour la FIR Shannon (EISN) :
 
Turbulence forte
EISN SIGMET 13 VALID 191700/192000 EINN
EISN SHANNON FIR SEV TURB FCST N OF LINE N5330 W01500 - N5324 W01009 - N5345 W00530 SFC/FL060 MOV NNE AT 20KT WKN=
Annulation du SIGMET 11
EISN SIGMET 12 191627/192000 EINN
EISN SHANNON FIR CNL SIGMET 11 191700/192000=
SIGMET 11  ANNULÉ :
Turbulence forte
EISN SIGMET 11 VALID 191700/192000 EINN
EISN SHANNON FIR SEV TURB FCST SFC/FL060 MOV NE 20KT WKN=
Onde orographique forte
EISN SIGMET 10 VALID 191600/192000 EINN
EISN SHANNON FIR/UIR SEV MTW FCST WI N5434 W01000 - N5445 W00900 - N5520 W00815 - N5525 W00720 - N5520 W00655 - N5425 W00810 - N5315 W00800 - N5315 W01000 - N5434 W01000 2000FT/FL250 STNR WKN=



MET'MAP, la Météo Aéronautique d'un coup d'oeil ! - Copyright ORBIFLY Décembre 2007 - Disclaimer

ORBIFLY MET'MAP TEAM :

Programmation & Développement : Alexandra Zaïnal
Conception & Développement : Baudouin d'Aumeries
Co-Programmation & Développement : Marc-Olivier Méhu
Soutien technique & logistique : Manuel Goepfert

Contact : metmap@orbifly.com




SOURCES & CREDITS :

   NOAA